createdAt,value
2022-09-25T00:01:48.150Z,96.02
2022-09-25T00:04:45.922Z,94.63
2022-09-25T00:07:42.990Z,95.12
2022-09-25T00:10:50.363Z,95.18
2022-09-25T00:13:47.702Z,94.93
2022-09-25T00:16:44.846Z,94.14
2022-09-25T00:19:50.720Z,93.90
2022-09-25T00:22:48.225Z,94.33
2022-09-25T00:25:53.570Z,93.77
2022-09-25T00:28:51.057Z,92.97
2022-09-25T00:31:47.733Z,93.67
2022-09-25T00:34:44.810Z,93.37
2022-09-25T00:37:41.745Z,93.27
2022-09-25T00:40:38.924Z,91.51
2022-09-25T00:43:39.623Z,91.37
2022-09-25T00:46:41.966Z,90.40
2022-09-25T00:49:38.971Z,90.49
2022-09-25T00:52:35.893Z,91.08
2022-09-25T00:55:33.581Z,91.10
2022-09-25T00:58:31.885Z,90.95
2022-09-25T01:01:29.214Z,90.46
2022-09-25T01:04:28.823Z,90.21
2022-09-25T01:07:25.848Z,90.08
2022-09-25T01:10:22.842Z,90.26
2022-09-25T01:13:20.326Z,89.63
2022-09-25T01:16:24.423Z,90.57
2022-09-25T01:19:29.086Z,91.01
2022-09-25T01:22:26.567Z,91.55
2022-09-25T01:25:53.573Z,91.82
2022-09-25T01:29:01.444Z,91.69
2022-09-25T01:32:22.321Z,91.95
2022-09-25T01:35:23.876Z,93.22
2022-09-25T01:38:21.241Z,93.06
2022-09-25T01:41:35.705Z,91.99
2022-09-25T01:44:34.975Z,91.43
2022-09-25T01:47:33.906Z,92.30
2022-09-25T01:50:36.484Z,92.83
2022-09-25T01:53:37.623Z,93.47
2022-09-25T01:56:38.826Z,94.25
2022-09-25T01:59:35.629Z,93.74
2022-09-25T02:02:35.300Z,91.86
2022-09-25T02:05:59.216Z,91.91
2022-09-25T02:09:01.879Z,92.68
2022-09-25T02:12:01.322Z,92.12
2022-09-25T02:15:01.848Z,93.18
2022-09-25T02:18:22.410Z,93.43
2022-09-25T02:21:41.760Z,92.98
2022-09-25T02:24:41.065Z,93.28
2022-09-25T02:27:37.755Z,93.06
2022-09-25T02:30:35.808Z,92.00
2022-09-25T02:33:32.729Z,91.98
2022-09-25T02:36:29.882Z,92.21
2022-09-25T02:39:29.775Z,92.48
2022-09-25T02:42:39.259Z,92.15
2022-09-25T02:45:43.745Z,92.85
2022-09-25T02:48:53.316Z,93.87
2022-09-25T02:52:05.619Z,92.79
2022-09-25T02:55:23.965Z,93.06
2022-09-25T02:58:35.586Z,93.37
2022-09-25T03:01:33.067Z,93.50
2022-09-25T03:04:29.617Z,92.78
2022-09-25T03:07:27.596Z,93.26
2022-09-25T03:10:24.865Z,93.89
2022-09-25T03:13:32.109Z,93.06
2022-09-25T03:16:31.848Z,91.70
2022-09-25T03:19:29.141Z,92.36
2022-09-25T03:22:26.142Z,90.83
2022-09-25T03:25:23.251Z,92.33
2022-09-25T03:28:20.346Z,93.90
2022-09-25T03:31:18.167Z,91.36
2022-09-25T03:34:16.472Z,91.40
2022-09-25T03:37:15.966Z,93.15
2022-09-25T03:40:13.118Z,92.37
2022-09-25T03:46:07.190Z,91.55
2022-09-25T03:49:04.357Z,91.11
2022-09-25T03:52:02.498Z,90.76
2022-09-25T03:54:59.721Z,90.99
2022-09-25T03:57:57.213Z,91.54
2022-09-25T04:00:57.312Z,91.06
2022-09-25T04:03:55.322Z,90.98
2022-09-25T04:06:53.065Z,90.83
2022-09-25T04:09:49.983Z,91.48
2022-09-25T04:12:47.205Z,91.63
2022-09-25T04:15:43.934Z,92.12
2022-09-25T04:18:43.175Z,92.08
2022-09-25T04:21:39.793Z,93.00
2022-09-25T04:24:48.527Z,91.50
2022-09-25T04:27:46.310Z,92.02
2022-09-25T04:30:42.994Z,91.21
2022-09-25T04:33:49.095Z,92.31
2022-09-25T04:36:46.040Z,93.57
2022-09-25T04:39:43.195Z,92.98
2022-09-25T04:42:41.237Z,91.94
2022-09-25T04:45:38.403Z,91.63
2022-09-25T04:48:36.217Z,93.04
2022-09-25T04:51:33.048Z,92.17
2022-09-25T04:54:29.996Z,93.37
2022-09-25T04:57:53.399Z,92.19
2022-09-25T05:00:44.360Z,91.39
2022-09-25T05:03:41.993Z,91.50
2022-09-25T05:06:39.115Z,92.20
2022-09-25T05:09:35.881Z,91.03
2022-09-25T05:12:32.894Z,90.85
2022-09-25T05:15:31.744Z,90.26
2022-09-25T05:18:29.102Z,91.16
2022-09-25T05:21:26.131Z,89.27
2022-09-25T05:24:23.320Z,88.51
2022-09-25T05:27:21.448Z,88.79
2022-09-25T05:30:19.116Z,90.94
2022-09-25T05:33:16.292Z,91.30
2022-09-25T05:36:12.803Z,94.34
2022-09-25T05:39:14.419Z,91.34
2022-09-25T05:42:12.104Z,91.08
2022-09-25T05:45:10.733Z,92.21
2022-09-25T05:48:08.831Z,91.09
2022-09-25T05:51:06.038Z,88.00
2022-09-25T05:54:03.038Z,87.79
2022-09-25T05:57:00.561Z,87.44
2022-09-25T05:59:59.082Z,88.97
2022-09-25T06:02:56.127Z,87.50
2022-09-25T06:05:56.032Z,87.09
2022-09-25T06:08:54.256Z,87.07
2022-09-25T06:11:51.689Z,87.30
2022-09-25T06:14:49.041Z,87.60
2022-09-25T06:17:46.078Z,87.87
2022-09-25T06:20:43.321Z,88.94
2022-09-25T06:23:41.851Z,88.78
2022-09-25T06:26:39.711Z,89.73
2022-09-25T06:29:36.928Z,88.94
2022-09-25T06:32:34.165Z,89.62
2022-09-25T06:35:30.810Z,91.12
2022-09-25T06:38:28.370Z,91.95
2022-09-25T06:41:25.483Z,91.69
2022-09-25T06:44:23.291Z,91.99
2022-09-25T06:47:23.519Z,92.99
2022-09-25T06:50:22.922Z,93.67
2022-09-25T06:53:20.598Z,94.14
2022-09-25T06:56:18.001Z,93.86
2022-09-25T06:59:15.287Z,94.95
2022-09-25T07:02:30.987Z,94.77
2022-09-25T07:05:28.152Z,95.66
2022-09-25T07:08:25.245Z,95.85
2022-09-25T07:11:26.244Z,95.33
2022-09-25T07:14:22.837Z,95.30
2022-09-25T07:17:20.454Z,95.28
2022-09-25T07:20:18.326Z,94.54
2022-09-25T07:23:17.069Z,94.52
2022-09-25T07:26:15.730Z,93.76
2022-09-25T07:29:13.751Z,94.21
2022-09-25T07:32:11.540Z,94.81
2022-09-25T07:35:09.365Z,95.81
2022-09-25T07:38:07.427Z,96.20
2022-09-25T07:41:05.563Z,97.57
2022-09-25T07:44:28.926Z,97.32
2022-09-25T07:47:20.264Z,96.88
2022-09-25T07:50:17.410Z,97.30
2022-09-25T07:53:13.954Z,98.06
2022-09-25T07:56:11.937Z,98.19
2022-09-25T07:59:09.449Z,97.14
2022-09-25T08:02:06.280Z,97.63
2022-09-25T08:05:03.217Z,96.63
2022-09-25T08:08:00.385Z,96.18
2022-09-25T08:11:08.384Z,94.67
2022-09-25T08:14:05.100Z,95.16
2022-09-25T08:17:02.186Z,94.93
2022-09-25T08:19:59.446Z,94.63
2022-09-25T08:22:57.351Z,94.82
2022-09-25T08:25:54.469Z,93.85
2022-09-25T08:28:51.836Z,93.34
2022-09-25T08:31:48.960Z,92.11
2022-09-25T08:34:46.825Z,91.87
2022-09-25T08:37:46.143Z,91.15
2022-09-25T08:40:53.673Z,90.72
2022-09-25T08:44:10.754Z,90.83
2022-09-25T08:47:42.675Z,90.08
2022-09-25T08:50:39.988Z,89.38
2022-09-25T08:53:41.303Z,89.65
2022-09-25T08:56:40.315Z,89.68
2022-09-25T08:59:39.230Z,90.72
2022-09-25T09:02:45.609Z,90.43
2022-09-25T09:05:47.100Z,90.47
2022-09-25T09:08:50.432Z,89.14
2022-09-25T09:12:02.069Z,89.23
2022-09-25T09:15:25.114Z,89.21
2022-09-25T09:18:26.704Z,87.35
2022-09-25T09:21:39.532Z,85.63
2022-09-25T09:24:54.478Z,85.76
2022-09-25T09:27:57.130Z,83.56
2022-09-25T09:31:26.824Z,83.24
2022-09-25T09:35:05.606Z,83.37
2022-09-25T09:38:23.210Z,83.82
2022-09-25T09:41:41.425Z,84.07
2022-09-25T09:44:59.148Z,83.59
2022-09-25T09:48:27.133Z,82.94
2022-09-25T09:52:07.937Z,83.70
2022-09-25T09:55:04.883Z,83.64
2022-09-25T09:58:06.877Z,83.05
2022-09-25T10:01:22.056Z,83.53
2022-09-25T10:04:24.394Z,81.77
2022-09-25T10:07:22.688Z,81.62
2022-09-25T10:10:20.429Z,80.94
2022-09-25T10:13:27.511Z,80.93
2022-09-25T10:16:25.456Z,79.23
2022-09-25T10:19:23.921Z,78.51
2022-09-25T10:22:24.246Z,76.72
2022-09-25T10:25:38.393Z,78.56
2022-09-25T10:28:36.059Z,78.00
2022-09-25T10:31:36.208Z,77.04
2022-09-25T10:34:33.463Z,74.79
2022-09-25T10:37:34.956Z,72.35
2022-09-25T10:40:34.084Z,73.12
2022-09-25T10:43:31.563Z,72.78
2022-09-25T10:46:52.133Z,74.07
2022-09-25T10:50:07.913Z,71.12
2022-09-25T10:53:07.672Z,70.57
2022-09-25T10:56:12.238Z,70.03
2022-09-25T10:59:20.217Z,69.32
2022-09-25T11:02:40.277Z,69.04
2022-09-25T11:05:38.511Z,69.39
2022-09-25T11:08:38.792Z,68.28
2022-09-25T11:11:36.528Z,66.68
2022-09-25T11:14:34.963Z,64.91
2022-09-25T11:17:38.227Z,66.55
2022-09-25T11:20:36.819Z,67.55
2022-09-25T11:23:45.793Z,66.20
2022-09-25T11:27:23.603Z,65.72
2022-09-25T11:30:21.869Z,65.61
2022-09-25T11:33:42.195Z,66.13
2022-09-25T11:36:43.635Z,63.82
2022-09-25T11:40:15.544Z,62.04
2022-09-25T11:43:14.135Z,65.17
2022-09-25T11:46:23.382Z,62.99
2022-09-25T11:49:26.789Z,64.71
2022-09-25T11:52:32.593Z,65.60
2022-09-25T11:55:43.353Z,63.88
2022-09-25T11:59:15.780Z,64.32
2022-09-25T12:02:30.806Z,65.75
2022-09-25T12:05:38.850Z,65.25
2022-09-25T12:08:47.713Z,65.31
2022-09-25T12:11:56.546Z,65.16
2022-09-25T12:14:59.906Z,62.76
2022-09-25T12:18:03.528Z,63.54
2022-09-25T12:21:19.777Z,59.57
2022-09-25T12:24:46.905Z,62.83
2022-09-25T12:28:02.477Z,60.27
2022-09-25T12:31:39.277Z,60.83
2022-09-25T12:34:58.327Z,54.71
2022-09-25T12:38:00.308Z,54.34
2022-09-25T12:41:04.345Z,57.55
2022-09-25T12:44:10.855Z,58.82
2022-09-25T12:47:24.082Z,61.28
2022-09-25T12:50:28.999Z,59.90
2022-09-25T12:53:40.379Z,57.79
2022-09-25T12:57:02.174Z,59.17
2022-09-25T13:00:19.343Z,59.51
2022-09-25T13:03:22.708Z,60.26
2022-09-25T13:06:28.896Z,60.92
2022-09-25T13:09:35.885Z,64.08
2022-09-25T13:12:35.161Z,65.79
2022-09-25T13:15:33.599Z,65.41
2022-09-25T13:18:30.881Z,66.46
2022-09-25T13:21:32.586Z,66.20
2022-09-25T13:24:29.235Z,65.88
2022-09-25T13:27:26.766Z,64.92
2022-09-25T13:30:26.230Z,65.85
2022-09-25T13:33:24.174Z,64.64
2022-09-25T13:36:25.359Z,64.94
2022-09-25T13:39:49.712Z,65.45
2022-09-25T13:42:47.671Z,64.74
2022-09-25T13:45:44.488Z,64.56
2022-09-25T13:48:41.392Z,64.73
2022-09-25T13:51:38.479Z,63.29
2022-09-25T13:54:35.544Z,64.66
2022-09-25T13:58:02.255Z,63.72
2022-09-25T14:01:00.235Z,65.26
2022-09-25T14:03:58.778Z,65.29
2022-09-25T14:06:58.412Z,66.33
2022-09-25T14:09:57.100Z,66.81
2022-09-25T14:12:54.323Z,65.76
2022-09-25T14:15:51.711Z,65.78
2022-09-25T14:18:54.229Z,64.46
2022-09-25T14:21:52.414Z,65.32
2022-09-25T14:24:50.051Z,62.07
2022-09-25T14:27:51.294Z,63.62
2022-09-25T14:30:52.764Z,64.08
2022-09-25T14:34:20.533Z,64.93
2022-09-25T14:37:31.972Z,66.74
2022-09-25T14:40:34.094Z,66.78
2022-09-25T14:43:45.183Z,66.38
2022-09-25T14:46:43.191Z,67.96
2022-09-25T14:49:43.406Z,66.23
2022-09-25T14:52:42.591Z,65.86
2022-09-25T14:55:46.305Z,66.36
2022-09-25T14:58:49.574Z,67.07
2022-09-25T15:01:50.404Z,68.29
2022-09-25T15:04:47.724Z,69.28
2022-09-25T15:07:45.436Z,69.66
2022-09-25T15:10:42.319Z,70.61
2022-09-25T15:13:39.401Z,70.39
2022-09-25T15:16:56.359Z,69.56
2022-09-25T15:19:53.931Z,69.98
2022-09-25T15:23:04.798Z,68.60
2022-09-25T15:26:01.618Z,67.11
2022-09-25T15:28:58.226Z,65.80
2022-09-25T15:31:55.483Z,66.72
2022-09-25T15:35:25.747Z,65.86
2022-09-25T15:38:29.215Z,65.97
2022-09-25T15:41:27.010Z,67.54
2022-09-25T15:44:26.087Z,68.33
2022-09-25T15:47:35.387Z,69.36
2022-09-25T15:50:32.816Z,70.40
2022-09-25T15:53:30.998Z,71.33
2022-09-25T15:56:38.936Z,72.57
2022-09-25T16:00:03.736Z,73.74
2022-09-25T16:03:34.929Z,74.91
2022-09-25T16:06:42.851Z,74.76
2022-09-25T16:09:39.855Z,75.26
2022-09-25T16:12:42.523Z,74.94
2022-09-25T16:15:45.469Z,74.83
2022-09-25T16:18:42.499Z,76.21
2022-09-25T16:21:41.066Z,76.57
2022-09-25T16:24:38.753Z,77.56
2022-09-25T16:27:35.631Z,77.53
2022-09-25T16:30:33.013Z,78.44
2022-09-25T16:33:33.211Z,77.85
2022-09-25T16:36:39.102Z,77.93
2022-09-25T16:39:37.972Z,78.17
2022-09-25T16:42:39.475Z,78.74
2022-09-25T16:45:36.637Z,78.48
2022-09-25T16:48:37.459Z,78.55
2022-09-25T16:51:34.822Z,78.63
2022-09-25T16:54:32.884Z,78.38
2022-09-25T16:57:29.545Z,78.40
2022-09-25T17:00:27.641Z,77.70
2022-09-25T17:03:24.280Z,77.82
2022-09-25T17:06:26.481Z,77.99
2022-09-25T17:09:28.558Z,77.43
2022-09-25T17:12:25.760Z,77.64
2022-09-25T17:15:27.591Z,77.68
2022-09-25T17:18:24.864Z,77.86
2022-09-25T17:21:22.182Z,78.37
2022-09-25T17:24:23.949Z,79.28
2022-09-25T17:27:21.408Z,77.93
2022-09-25T17:30:19.257Z,77.12
2022-09-25T17:33:18.354Z,77.33
2022-09-25T17:36:15.386Z,77.56
2022-09-25T17:39:13.100Z,77.78
2022-09-25T17:42:11.067Z,77.69
2022-09-25T17:45:31.372Z,77.17
2022-09-25T17:48:31.012Z,77.56
2022-09-25T17:51:29.681Z,78.90
2022-09-25T17:54:29.967Z,80.89
2022-09-25T17:57:27.906Z,82.19
2022-09-25T18:00:25.709Z,83.45
2022-09-25T18:03:22.695Z,83.00
2022-09-25T18:06:19.906Z,83.21
2022-09-25T18:09:17.164Z,83.94
2022-09-25T18:12:14.322Z,83.87
2022-09-25T18:15:12.920Z,83.19
2022-09-25T18:18:10.011Z,83.44
2022-09-25T18:21:25.335Z,83.75
2022-09-25T18:24:22.576Z,82.64
2022-09-25T18:27:19.359Z,82.73
2022-09-25T18:30:18.873Z,83.16
2022-09-25T18:33:15.703Z,84.80
2022-09-25T18:36:12.529Z,84.25
2022-09-25T18:39:09.867Z,83.50
2022-09-25T18:42:06.721Z,83.47
2022-09-25T18:45:03.900Z,84.54
2022-09-25T18:48:00.577Z,83.55
2022-09-25T18:50:57.870Z,82.53
2022-09-25T18:53:55.159Z,82.39
2022-09-25T18:56:52.840Z,82.23
2022-09-25T18:59:49.722Z,82.06
2022-09-25T19:02:46.638Z,81.91
2022-09-25T19:05:44.163Z,83.50
2022-09-25T19:08:41.721Z,83.07
2022-09-25T19:11:38.647Z,82.81
2022-09-25T19:14:35.921Z,83.89
2022-09-25T19:17:32.746Z,84.83
2022-09-25T19:20:29.586Z,84.56
2022-09-25T19:23:27.076Z,84.43
2022-09-25T19:26:28.098Z,84.04
2022-09-25T19:29:25.713Z,82.74
2022-09-25T19:32:24.523Z,82.60
2022-09-25T19:35:21.828Z,83.38
2022-09-25T19:38:18.756Z,83.85
2022-09-25T19:41:17.826Z,83.76
2022-09-25T19:44:15.576Z,84.03
2022-09-25T19:47:13.252Z,84.46
2022-09-25T19:50:11.043Z,85.36
2022-09-25T19:53:07.591Z,86.32
2022-09-25T19:56:05.227Z,85.39
2022-09-25T19:59:05.698Z,84.82
2022-09-25T20:02:03.228Z,84.83
2022-09-25T20:05:00.739Z,85.65
2022-09-25T20:07:57.674Z,86.17
2022-09-25T20:10:55.132Z,86.91
2022-09-25T20:13:53.863Z,86.36
2022-09-25T20:16:53.095Z,84.90
2022-09-25T20:19:50.333Z,83.93
2022-09-25T20:22:47.771Z,83.75
2022-09-25T20:25:44.807Z,83.88
2022-09-25T20:28:42.431Z,85.08
2022-09-25T20:31:42.028Z,84.54
2022-09-25T20:34:39.662Z,86.54
2022-09-25T20:37:36.750Z,87.93
2022-09-25T20:40:34.039Z,87.64
2022-09-25T20:43:31.991Z,88.04
2022-09-25T20:46:30.076Z,88.49
2022-09-25T20:49:26.709Z,88.59
2022-09-25T20:52:23.540Z,88.13
2022-09-25T20:55:21.163Z,88.36
2022-09-25T20:58:19.012Z,88.33
2022-09-25T21:01:17.355Z,89.12
2022-09-25T21:04:18.249Z,88.56
2022-09-25T21:07:17.150Z,87.10
2022-09-25T21:10:15.592Z,86.62
2022-09-25T21:13:12.430Z,86.51
2022-09-25T21:16:09.897Z,86.79
2022-09-25T21:19:07.167Z,87.94
2022-09-25T21:22:03.952Z,88.27
2022-09-25T21:25:00.775Z,88.99
2022-09-25T21:27:58.325Z,89.97
2022-09-25T21:30:56.063Z,90.70
2022-09-25T21:33:56.723Z,90.69
2022-09-25T21:36:53.615Z,89.99
2022-09-25T21:39:51.251Z,90.80
2022-09-25T21:42:48.684Z,89.61
2022-09-25T21:45:45.825Z,89.12
2022-09-25T21:48:48.715Z,90.04
2022-09-25T21:51:45.709Z,91.20
2022-09-25T21:54:43.236Z,91.04
2022-09-25T21:57:40.657Z,90.01
2022-09-25T22:00:37.546Z,89.01
2022-09-25T22:03:36.461Z,89.92
2022-09-25T22:06:44.570Z,89.63
2022-09-25T22:09:42.213Z,90.70
2022-09-25T22:12:39.978Z,91.80
2022-09-25T22:15:37.713Z,92.42
2022-09-25T22:18:47.904Z,93.08
2022-09-25T22:21:45.229Z,91.53
2022-09-25T22:24:43.040Z,92.18
2022-09-25T22:27:39.971Z,93.66
2022-09-25T22:30:37.003Z,94.33
2022-09-25T22:33:34.465Z,93.25
2022-09-25T22:36:32.384Z,89.01
2022-09-25T22:39:29.893Z,86.55
2022-09-25T22:42:26.872Z,86.29
2022-09-25T22:45:23.626Z,86.54
2022-09-25T22:48:21.256Z,87.43
2022-09-25T22:51:20.546Z,87.15
2022-09-25T22:54:17.714Z,86.54
2022-09-25T22:57:14.605Z,86.99
2022-09-25T23:00:11.979Z,85.35
2022-09-25T23:03:09.871Z,84.77
2022-09-25T23:06:07.459Z,85.26
2022-09-25T23:09:06.529Z,84.89
2022-09-25T23:12:04.201Z,85.71
2022-09-25T23:15:01.042Z,85.46
2022-09-25T23:17:57.894Z,85.13
2022-09-25T23:20:55.234Z,85.70
2022-09-25T23:23:55.808Z,85.52
2022-09-25T23:26:53.136Z,85.59
2022-09-25T23:29:49.827Z,84.76
2022-09-25T23:32:46.659Z,85.55
2022-09-25T23:35:43.986Z,85.29
2022-09-25T23:38:41.049Z,86.12
2022-09-25T23:41:39.048Z,85.67
2022-09-25T23:44:36.095Z,86.37
2022-09-25T23:47:32.684Z,86.09
2022-09-25T23:50:29.786Z,85.93
2022-09-25T23:53:26.894Z,86.47
2022-09-25T23:56:25.870Z,86.86
2022-09-25T23:59:22.839Z,86.55
